Time;durP1;ratioP1;P1;durP2;ratioP2;P2;SDS_P1;SDS_P2;PMS_P1;PMS_P2;Temp;Humidity;BMP_temperature;BMP_pressure;BME280_temperature;BME280_humidity;BME280_pressure;Samples;Min_cycle;Max_cycle;Signal;HPM_P1;HPM_P2
2022/09/05 00:02:02;;;;;;;4.40;2.23;;;17.10;1.00;;;;;;5084334;28;20238;-79
2022/09/05 00:04:55;;;;;;;2.97;2.10;;;17.10;1.00;;;;;;5081045;28;20220;-78
2022/09/05 00:07:35;;;;;;;3.13;2.20;;;17.10;1.00;;;;;;5077995;28;20194;-79
2022/09/05 00:10:22;;;;;;;4.40;2.33;;;17.00;1.00;;;;;;5075892;28;20226;-78
2022/09/05 00:12:49;;;;;;;2.23;2.03;;;17.00;1.00;;;;;;5077857;28;20529;-78
2022/09/05 00:15:27;;;;;;;2.50;2.30;;;17.00;1.00;;;;;;5077206;28;20175;-78
2022/09/05 00:18:34;;;;;;;2.67;2.10;;;17.00;1.00;;;;;;5075906;28;20586;-79
2022/09/05 00:21:37;;;;;;;2.10;1.90;;;17.00;1.00;;;;;;5076838;28;20255;-78
2022/09/05 00:24:23;;;;;;;3.73;2.30;;;17.00;1.00;;;;;;5064698;28;20648;-78
2022/09/05 00:26:59;;;;;;;2.43;2.17;;;16.90;99.90;;;;;;5075421;28;20174;-77
2022/09/05 00:29:36;;;;;;;2.93;2.00;;;16.90;65.00;;;;;;5076891;28;20182;-78
2022/09/05 00:32:08;;;;;;;2.33;2.03;;;16.80;99.90;;;;;;5076669;28;20171;-78
2022/09/05 00:35:00;;;;;;;4.07;2.40;;;16.80;99.90;;;;;;5077336;28;20167;-79
2022/09/05 00:37:36;;;;;;;2.70;2.40;;;16.80;99.90;;;;;;5076147;28;20210;-79
2022/09/05 00:40:13;;;;;;;4.17;2.20;;;16.70;1.00;;;;;;5074753;28;20198;-78
2022/09/05 00:42:40;;;;;;;3.97;2.47;;;16.70;15.70;;;;;;5077634;28;20159;-77
2022/09/05 00:45:10;;;;;;;5.50;2.10;;;16.70;99.90;;;;;;5075817;28;20648;-78
2022/09/05 00:47:52;;;;;;;4.07;2.40;;;16.60;99.90;;;;;;5075641;28;20178;-79
2022/09/05 00:50:22;;;;;;;5.77;2.33;;;16.60;99.90;;;;;;5074671;28;20203;-77
2022/09/05 00:53:10;;;;;;;3.10;2.70;;;16.60;99.90;;;;;;5075681;28;20652;-78
2022/09/05 00:55:39;;;;;;;2.80;2.40;;;16.60;1.00;;;;;;5076518;28;20155;-78
2022/09/05 00:58:30;;;;;;;2.43;2.03;;;16.60;99.90;;;;;;5076512;28;20171;-79
2022/09/05 01:00:58;;;;;;;3.30;2.50;;;16.60;99.90;;;;;;5054701;28;20223;-79
2022/09/05 01:03:34;;;;;;;3.80;2.00;;;16.60;1.00;;;;;;5056805;28;20263;-79
2022/09/05 01:06:14;;;;;;;2.37;2.03;;;16.60;99.90;;;;;;5056864;28;20155;-79
2022/09/05 01:09:09;;;;;;;3.43;2.10;;;16.50;1.00;;;;;;5056767;28;20629;-78
2022/09/05 01:12:01;;;;;;;3.33;2.30;;;16.50;1.00;;;;;;5070350;28;20285;-79
2022/09/05 01:14:53;;;;;;;2.03;1.93;;;16.50;1.00;;;;;;5077047;28;20227;-79
2022/09/05 01:17:29;;;;;;;2.40;2.20;;;16.40;1.00;;;;;;5075443;28;20318;-79
2022/09/05 01:20:06;;;;;;;2.27;2.03;;;16.40;1.00;;;;;;5075639;28;20187;-79
2022/09/05 01:23:08;;;;;;;2.97;2.20;;;16.40;1.00;;;;;;5076517;28;20164;-79
2022/09/05 01:29:16;;;;;;;3.43;2.03;;;16.30;1.00;;;;;;5076401;28;20174;-79
2022/09/05 01:32:08;;;;;;;2.43;2.20;;;16.30;99.90;;;;;;5073776;28;20199;-79
2022/09/05 01:34:53;;;;;;;3.23;2.30;;;16.30;99.90;;;;;;5080603;28;20197;-78
2022/09/05 01:37:26;;;;;;;2.17;1.97;;;16.20;1.00;;;;;;5081719;28;20263;-77
2022/09/05 01:40:18;;;;;;;4.33;2.40;;;16.20;1.00;;;;;;5078849;28;20198;-80
2022/09/05 01:43:20;;;;;;;2.40;2.17;;;16.20;1.00;;;;;;5075856;28;20164;-77
2022/09/05 01:45:59;;;;;;;2.17;1.97;;;16.10;1.00;;;;;;5073782;28;20163;-78
2022/09/05 01:48:35;;;;;;;3.73;2.37;;;16.10;1.00;;;;;;5077339;28;20170;-80
2022/09/05 01:51:29;;;;;;;2.80;1.87;;;16.10;1.00;;;;;;5075351;28;20202;-77
2022/09/05 01:54:15;;;;;;;2.43;2.23;;;16.00;99.90;;;;;;5075337;28;20174;-80
2022/09/05 01:56:41;;;;;;;2.53;2.03;;;16.00;99.90;;;;;;5075517;28;20613;-78
2022/09/05 01:59:32;;;;;;;2.90;2.37;;;16.00;9.90;;;;;;5073266;28;20258;-78
2022/09/05 02:02:22;;;;;;;3.47;2.60;;;16.00;99.90;;;;;;5073879;28;20171;-78
2022/09/05 02:05:18;;;;;;;3.93;2.13;;;16.00;99.90;;;;;;5074694;28;20167;-79
2022/09/05 02:08:18;;;;;;;2.87;2.50;;;15.90;99.90;;;;;;5075852;28;20159;-78
2022/09/05 02:11:02;;;;;;;2.50;2.23;;;15.90;99.90;;;;;;5074260;28;20256;-78
2022/09/05 02:13:50;;;;;;;2.87;2.57;;;15.90;1.00;;;;;;5075321;28;20543;-78
2022/09/05 02:16:43;;;;;;;2.40;2.20;;;15.90;1.00;;;;;;5076274;28;20585;-78
2022/09/05 02:19:08;;;;;;;2.93;2.47;;;15.80;1.00;;;;;;5085133;28;20190;-78
2022/09/05 02:21:37;;;;;;;2.30;2.10;;;15.80;1.00;;;;;;5080327;28;20229;-78
2022/09/05 02:24:18;;;;;;;2.60;2.20;;;15.80;1.00;;;;;;5074654;28;20167;-78
2022/09/05 02:27:06;;;;;;;2.17;1.97;;;15.80;1.00;;;;;;5073903;28;20175;-78
2022/09/05 02:29:56;;;;;;;2.50;2.30;;;15.70;1.00;;;;;;5071577;28;20584;-78
2022/09/05 02:32:24;;;;;;;2.87;2.37;;;15.70;1.00;;;;;;5074980;28;20199;-79
2022/09/05 02:35:30;;;;;;;2.30;2.10;;;15.70;1.00;;;;;;5073442;28;20178;-77
2022/09/05 02:38:19;;;;;;;3.63;2.20;;;15.70;1.00;;;;;;5072717;28;20186;-78
2022/09/05 02:40:56;;;;;;;2.63;2.17;;;15.60;1.00;;;;;;5074046;28;20219;-79
2022/09/05 02:43:37;;;;;;;3.23;2.40;;;15.60;10.20;;;;;;5075481;28;20162;-79
2022/09/05 02:46:24;;;;;;;3.93;2.50;;;15.60;99.90;;;;;;5074722;28;20174;-79
2022/09/05 02:49:08;;;;;;;2.53;2.33;;;15.60;99.90;;;;;;5075061;28;20178;-79
2022/09/05 02:51:43;;;;;;;2.50;2.30;;;15.60;99.90;;;;;;5074492;28;20247;-79
2022/09/05 02:54:20;;;;;;;2.23;2.00;;;15.60;99.90;;;;;;5074171;28;20182;-79
2022/09/05 02:56:57;;;;;;;4.47;2.20;;;15.60;99.90;;;;;;5074316;28;20174;-79
2022/09/05 02:59:53;;;;;;;2.57;2.30;;;15.60;99.90;;;;;;5076541;28;20197;-79
2022/09/05 03:02:52;;;;;;;3.30;2.43;;;15.60;99.90;;;;;;5080872;28;20186;-79
2022/09/05 03:05:33;;;;;;;3.90;2.47;;;15.60;1.00;;;;;;5087021;28;20196;-79
2022/09/05 03:08:20;;;;;;;3.83;2.60;;;15.60;1.00;;;;;;5092375;28;20163;-78
2022/09/05 03:11:14;;;;;;;3.23;2.47;;;15.60;1.00;;;;;;5080601;28;20341;-78
2022/09/05 03:14:01;;;;;;;4.60;2.33;;;15.50;1.00;;;;;;5073754;28;20160;-78
2022/09/05 03:16:30;;;;;;;2.80;2.10;;;15.50;1.00;;;;;;5072680;28;20171;-78
2022/09/05 03:19:14;;;;;;;3.23;2.53;;;15.50;1.00;;;;;;5073760;28;20659;-78
2022/09/05 03:22:03;;;;;;;3.30;2.50;;;15.50;1.00;;;;;;5072971;28;20310;-77
2022/09/05 03:24:57;;;;;;;3.20;2.43;;;15.50;1.00;;;;;;5073356;28;20169;-78
2022/09/05 03:28:02;;;;;;;3.83;2.20;;;15.50;1.00;;;;;;5071471;28;20649;-78
2022/09/05 03:30:54;;;;;;;2.83;2.50;;;15.40;1.00;;;;;;5071944;28;20214;-78
2022/09/05 03:34:07;;;;;;;4.70;2.70;;;15.40;1.00;;;;;;5073532;28;20199;-78
2022/09/05 03:36:53;;;;;;;2.53;1.90;;;15.40;1.00;;;;;;5073853;28;20170;-78
2022/09/05 03:39:38;;;;;;;2.83;2.17;;;15.40;64.30;;;;;;5073793;28;20182;-78
2022/09/05 03:42:13;;;;;;;3.23;2.40;;;15.30;21.80;;;;;;5074302;28;20539;-78
2022/09/05 03:45:13;;;;;;;3.20;2.67;;;15.30;24.80;;;;;;5073365;28;20201;-78
2022/09/05 03:48:13;;;;;;;4.33;2.80;;;15.30;43.80;;;;;;5074694;28;20633;-78
2022/09/05 03:51:02;;;;;;;2.80;2.37;;;15.30;12.90;;;;;;5077195;28;20202;-78
2022/09/05 03:54:09;;;;;;;2.40;2.07;;;15.30;26.00;;;;;;5076568;28;20177;-78
2022/09/05 03:56:55;;;;;;;4.53;2.20;;;15.20;8.70;;;;;;5076191;28;20187;-78
2022/09/05 03:59:23;;;;;;;3.17;2.40;;;15.30;16.70;;;;;;5077011;28;20265;-79
2022/09/05 04:01:57;;;;;;;3.37;2.30;;;15.30;1.00;;;;;;5074907;28;20231;-78
2022/09/05 04:04:32;;;;;;;5.23;2.60;;;15.20;1.00;;;;;;5077449;28;20167;-78
2022/09/05 04:07:05;;;;;;;2.93;2.40;;;15.20;1.00;;;;;;5077402;28;20264;-79
2022/09/05 04:10:06;;;;;;;2.63;2.37;;;15.20;14.00;;;;;;5076660;28;20195;-77
2022/09/05 04:12:46;;;;;;;2.47;2.00;;;15.20;6.70;;;;;;5076611;28;20179;-78
2022/09/05 04:15:21;;;;;;;2.50;2.00;;;15.20;10.60;;;;;;5075795;28;20261;-78
2022/09/05 04:17:55;;;;;;;3.40;2.93;;;15.20;35.40;;;;;;5075773;28;20190;-79
2022/09/05 04:20:32;;;;;;;2.73;2.40;;;15.20;34.90;;;;;;5077016;28;20218;-78
2022/09/05 04:23:09;;;;;;;2.57;2.33;;;15.20;16.00;;;;;;5076281;28;20240;-79
2022/09/05 04:26:03;;;;;;;4.93;2.67;;;15.10;1.00;;;;;;5077883;28;20260;-78
2022/09/05 04:28:58;;;;;;;2.87;2.47;;;15.20;1.00;;;;;;5077912;28;20250;-77
2022/09/05 04:31:46;;;;;;;2.57;1.80;;;15.10;1.00;;;;;;5073785;28;20648;-77
2022/09/05 04:34:24;;;;;;;2.30;2.00;;;15.10;1.00;;;;;;5073656;28;20694;-77
2022/09/05 04:37:06;;;;;;;2.50;2.00;;;15.10;1.00;;;;;;5075676;28;20167;-76
2022/09/05 04:39:32;;;;;;;3.13;2.30;;;15.10;1.00;;;;;;5073609;28;20240;-77
2022/09/05 04:42:03;;;;;;;2.30;2.00;;;15.10;1.00;;;;;;5075654;28;20170;-78
2022/09/05 04:44:34;;;;;;;3.37;2.27;;;15.00;1.00;;;;;;5075588;28;20299;-78
2022/09/05 04:47:07;;;;;;;2.57;2.30;;;15.00;1.00;;;;;;5075923;28;20170;-77
2022/09/05 04:49:39;;;;;;;2.67;2.13;;;15.00;1.00;;;;;;5072959;28;20183;-78
2022/09/05 04:52:25;;;;;;;2.80;2.50;;;15.00;1.00;;;;;;5078734;28;20166;-78
2022/09/05 04:54:56;;;;;;;3.53;2.43;;;15.00;1.00;;;;;;5075802;28;20644;-77
2022/09/05 04:57:26;;;;;;;3.27;2.30;;;15.10;13.40;;;;;;5075788;28;20163;-78
2022/09/05 05:00:06;;;;;;;2.80;2.13;;;15.00;22.30;;;;;;5073401;28;20195;-78
2022/09/05 05:02:48;;;;;;;3.57;2.00;;;15.00;24.80;;;;;;5075093;28;20605;-77
2022/09/05 05:05:27;;;;;;;4.10;2.23;;;15.00;14.40;;;;;;5075178;28;20175;-80
2022/09/05 05:08:04;;;;;;;3.23;2.47;;;15.00;14.70;;;;;;5076234;28;20163;-78
2022/09/05 05:10:41;;;;;;;3.40;2.37;;;15.00;32.40;;;;;;5075801;28;20206;-79
2022/09/05 05:13:29;;;;;;;2.33;2.10;;;15.00;65.30;;;;;;5075344;28;20173;-79
2022/09/05 05:15:57;;;;;;;3.17;2.53;;;15.00;86.60;;;;;;5076306;28;20147;-78
2022/09/05 05:18:39;;;;;;;3.67;2.20;;;15.00;94.50;;;;;;5075895;28;20718;-78
2022/09/05 05:21:19;;;;;;;2.60;2.20;;;14.90;99.90;;;;;;5088498;22;21883;-93
2022/09/05 05:23:48;;;;;;;3.17;2.27;;;15.00;99.90;;;;;;5060353;28;20211;-92
2022/09/05 05:26:26;;;;;;;4.57;2.17;;;15.50;99.90;;;;;;5059375;28;20634;-92
2022/09/05 05:29:15;;;;;;;2.80;2.30;;;15.10;95.90;;;;;;5058578;28;20194;-92
2022/09/05 05:31:54;;;;;;;3.50;2.00;;;14.90;99.90;;;;;;5038170;28;20180;-92
2022/09/05 05:34:30;;;;;;;3.37;2.40;;;14.90;99.90;;;;;;5039680;28;20207;-92
2022/09/05 05:37:07;;;;;;;2.57;1.93;;;14.90;99.90;;;;;;5040924;28;20168;-93
2022/09/05 05:39:40;;;;;;;8.03;2.73;;;15.00;99.90;;;;;;5039646;28;20187;-92
2022/09/05 05:42:14;;;;;;;2.73;2.53;;;14.90;99.90;;;;;;5040547;28;20168;-92
2022/09/05 05:44:49;;;;;;;2.83;2.53;;;14.90;99.90;;;;;;5049175;28;20206;-92
2022/09/05 05:47:25;;;;;;;3.03;2.60;;;14.90;99.90;;;;;;5059379;28;20262;-92
2022/09/05 05:50:02;;;;;;;6.00;2.20;;;15.00;99.90;;;;;;5058170;28;20195;-92
2022/09/05 05:52:41;;;;;;;3.70;2.50;;;15.00;99.90;;;;;;5075719;22;20227;-80
2022/09/05 05:55:44;;;;;;;3.97;2.13;;;15.00;99.90;;;;;;5066010;28;20152;-80
2022/09/05 05:58:31;;;;;;;3.77;2.27;;;15.00;99.90;;;;;;5061241;28;20178;-79
2022/09/05 06:01:35;;;;;;;3.80;1.97;;;15.10;99.90;;;;;;5056671;28;20178;-79
2022/09/05 06:04:21;;;;;;;7.20;2.30;;;15.10;99.90;;;;;;5058553;28;20180;-79
2022/09/05 06:07:11;;;;;;;4.67;2.33;;;15.10;99.90;;;;;;5066014;28;20225;-79
2022/09/05 06:10:14;;;;;;;3.70;2.33;;;15.20;99.90;;;;;;5065853;28;20635;-79
2022/09/05 06:13:01;;;;;;;2.40;2.17;;;15.20;99.90;;;;;;5066738;28;20183;-79
2022/09/05 06:15:54;;;;;;;3.20;2.17;;;15.20;99.90;;;;;;5070990;28;20171;-79
2022/09/05 06:18:43;;;;;;;6.40;2.40;;;15.30;99.90;;;;;;5067981;28;20259;-79
2022/09/05 06:21:50;;;;;;;8.17;2.67;;;15.30;99.90;;;;;;5062268;28;20187;-80
2022/09/05 06:24:52;;;;;;;2.63;2.43;;;15.40;99.90;;;;;;5062784;28;20171;-81
2022/09/05 06:27:44;;;;;;;4.17;2.20;;;15.40;99.90;;;;;;5063456;28;20667;-83
2022/09/05 06:30:21;;;;;;;2.30;2.10;;;15.40;99.90;;;;;;5055139;28;20264;-80
2022/09/05 06:32:59;;;;;;;2.73;2.50;;;15.50;99.90;;;;;;5061773;28;20191;-79
2022/09/05 06:35:30;;;;;;;3.57;2.40;;;15.50;99.90;;;;;;5061450;28;20160;-79
2022/09/05 06:38:03;;;;;;;3.40;2.30;;;15.60;99.90;;;;;;5059992;28;20194;-79
2022/09/05 06:40:46;;;;;;;3.57;2.30;;;15.60;99.90;;;;;;5061259;28;20561;-78
2022/09/05 06:43:31;;;;;;;2.30;2.10;;;15.70;99.90;;;;;;5060473;28;20167;-80
2022/09/05 06:46:04;;;;;;;2.77;2.20;;;15.70;99.90;;;;;;5060571;28;20155;-79
2022/09/05 06:48:54;;;;;;;4.63;2.50;;;15.80;99.90;;;;;;5061098;28;20167;-78
2022/09/05 06:51:22;;;;;;;5.00;2.37;;;15.90;99.90;;;;;;5057386;28;20196;-79
2022/09/05 06:53:57;;;;;;;3.10;2.50;;;16.00;99.90;;;;;;5060674;28;20179;-78
2022/09/05 06:56:29;;;;;;;6.80;2.30;;;16.10;99.90;;;;;;5056263;28;20175;-78
2022/09/05 06:59:23;;;;;;;5.57;2.37;;;16.20;99.90;;;;;;5055427;28;20152;-78
2022/09/05 07:02:06;;;;;;;2.63;2.20;;;16.30;99.90;;;;;;5021064;28;20228;-81
2022/09/05 07:04:36;;;;;;;3.00;2.70;;;16.40;99.90;;;;;;5059818;28;20583;-80
2022/09/05 07:07:25;;;;;;;3.13;2.33;;;16.60;99.90;;;;;;5061928;28;20196;-79
2022/09/05 07:10:05;;;;;;;2.40;2.20;;;16.80;99.90;;;;;;5059169;28;20568;-82
2022/09/05 07:12:48;;;;;;;5.20;2.67;;;17.00;99.90;;;;;;5056919;28;20221;-79
2022/09/05 07:15:32;;;;;;;2.87;2.13;;;17.20;33.80;;;;;;5057602;28;20259;-79
2022/09/05 07:18:06;;;;;;;2.37;2.17;;;17.40;1.00;;;;;;5055884;28;20178;-79
2022/09/05 07:20:43;;;;;;;3.50;2.10;;;17.60;1.00;;;;;;5056086;28;20539;-79
2022/09/05 07:23:27;;;;;;;3.97;2.40;;;17.70;1.00;;;;;;5058831;28;20166;-79
2022/09/05 07:25:54;;;;;;;2.97;2.10;;;17.90;99.90;;;;;;5061247;28;20246;-81
2022/09/05 07:28:21;;;;;;;3.50;1.70;;;18.10;1.00;;;;;;5060818;28;20179;-80
2022/09/05 07:31:12;;;;;;;3.23;1.97;;;18.20;96.70;;;;;;5060603;28;20199;-80
2022/09/05 07:33:39;;;;;;;2.00;1.80;;;18.40;1.00;;;;;;5059792;28;20174;-80
2022/09/05 07:36:10;;;;;;;3.43;1.60;;;18.50;1.00;;;;;;5058500;28;20176;-81
2022/09/05 07:38:38;;;;;;;5.13;1.87;;;18.70;67.70;;;;;;5059233;28;20197;-80
2022/09/05 07:41:26;;;;;;;2.77;1.73;;;18.80;1.00;;;;;;5058645;28;20196;-80
2022/09/05 07:44:09;;;;;;;3.03;1.67;;;18.90;1.00;;;;;;5060083;28;20321;-80
2022/09/05 07:46:38;;;;;;;2.80;1.60;;;19.10;1.00;;;;;;5058138;28;20660;-80
2022/09/05 07:49:14;;;;;;;3.90;1.93;;;19.20;99.90;;;;;;5059113;28;20669;-80
2022/09/05 07:51:55;;;;;;;1.60;1.30;;;19.30;1.00;;;;;;5059798;28;20191;-80
2022/09/05 07:54:29;;;;;;;1.60;1.50;;;19.50;99.90;;;;;;5060248;28;20213;-80
2022/09/05 07:57:04;;;;;;;2.63;1.80;;;19.60;1.00;;;;;;5059612;28;20156;-81
2022/09/05 07:59:36;;;;;;;2.00;1.50;;;19.70;99.90;;;;;;5061151;28;20235;-81
2022/09/05 08:02:04;;;;;;;2.50;1.50;;;19.90;1.00;;;;;;5060520;28;20210;-80
2022/09/05 08:04:38;;;;;;;1.53;1.30;;;20.00;1.00;;;;;;5064773;28;20204;-80
2022/09/05 08:07:09;;;;;;;2.73;1.40;;;20.10;1.00;;;;;;5064465;28;20596;-80
2022/09/05 08:09:40;;;;;;;3.47;1.80;;;20.20;1.00;;;;;;5059075;28;20238;-79
2022/09/05 08:12:11;;;;;;;2.33;1.37;;;20.30;1.00;;;;;;5058200;28;20191;-79
2022/09/05 08:15:03;;;;;;;1.90;1.50;;;20.40;99.90;;;;;;5058445;28;20167;-79
2022/09/05 08:17:29;;;;;;;2.23;1.50;;;20.50;20.20;;;;;;5056631;28;20187;-79
2022/09/05 08:20:31;;;;;;;2.87;2.07;;;20.60;1.00;;;;;;5056571;28;20176;-79
2022/09/05 08:23:34;;;;;;;1.97;1.30;;;20.70;1.00;;;;;;5040266;28;20630;-79
2022/09/05 08:26:11;;;;;;;1.33;1.23;;;20.80;99.90;;;;;;5051505;28;20183;-79
2022/09/05 08:29:09;;;;;;;3.00;1.47;;;21.00;86.40;;;;;;5058911;28;20261;-79
2022/09/05 08:32:08;;;;;;;2.40;1.43;;;21.00;1.00;;;;;;5057090;28;20207;-79
2022/09/05 08:34:46;;;;;;;4.33;1.50;;;21.20;1.00;;;;;;5058004;28;20245;-79
2022/09/05 08:37:18;;;;;;;1.50;1.40;;;21.30;1.00;;;;;;5058404;28;20182;-79
2022/09/05 08:39:47;;;;;;;5.03;1.60;;;21.40;99.90;;;;;;5057130;28;20270;-79
2022/09/05 08:42:47;;;;;;;3.13;1.47;;;21.60;99.90;;;;;;5057837;28;20202;-79
2022/09/05 08:45:21;;;;;;;2.87;1.50;;;21.60;99.90;;;;;;5056959;28;20260;-81
2022/09/05 08:47:57;;;;;;;3.50;1.23;;;21.80;99.90;;;;;;5058566;28;20225;-80
2022/09/05 08:50:36;;;;;;;3.40;1.20;;;21.80;1.00;;;;;;5058155;28;20202;-80
2022/09/05 08:53:46;;;;;;;2.60;1.50;;;21.90;1.00;;;;;;5058283;28;20207;-80
2022/09/05 08:56:22;;;;;;;4.37;1.40;;;22.00;1.00;;;;;;5060697;28;20234;-80
2022/09/05 08:58:54;;;;;;;2.60;1.57;;;22.10;1.00;;;;;;5059392;28;20220;-80
2022/09/05 09:01:45;;;;;;;5.23;1.57;;;22.30;1.00;;;;;;5059906;28;20195;-81
2022/09/05 09:04:35;;;;;;;1.33;1.23;;;22.30;1.00;;;;;;5055792;28;20705;-79
2022/09/05 09:07:12;;;;;;;2.47;1.47;;;22.50;1.00;;;;;;5055252;28;20645;-79
2022/09/05 09:09:53;;;;;;;1.80;1.10;;;22.70;99.90;;;;;;5055647;28;20641;-79
2022/09/05 09:12:56;;;;;;;3.13;1.40;;;22.70;99.90;;;;;;5056190;28;20658;-79
2022/09/05 09:15:50;;;;;;;2.07;1.43;;;22.80;99.90;;;;;;5039929;28;20186;-79
2022/09/05 09:18:20;;;;;;;4.93;1.27;;;22.90;1.00;;;;;;5055996;28;20164;-79
2022/09/05 09:20:54;;;;;;;1.87;0.97;;;23.00;1.00;;;;;;5055908;28;20183;-79
2022/09/05 09:23:25;;;;;;;2.20;1.30;;;23.10;1.00;;;;;;5055839;28;20190;-78
2022/09/05 09:26:12;;;;;;;3.13;1.50;;;23.20;1.00;;;;;;5056501;28;20183;-78
2022/09/05 09:29:01;;;;;;;1.63;1.13;;;23.40;1.00;;;;;;5054457;28;20552;-79
2022/09/05 09:31:53;;;;;;;1.50;1.07;;;23.40;1.00;;;;;;5054474;28;20642;-79
2022/09/05 09:34:24;;;;;;;2.27;1.50;;;23.60;1.00;;;;;;5054300;28;20185;-79
2022/09/05 09:37:13;;;;;;;2.23;1.40;;;23.70;99.90;;;;;;5053469;28;20568;-79
2022/09/05 09:40:17;;;;;;;1.40;1.27;;;24.00;1.00;;;;;;5054564;28;20237;-79
2022/09/05 09:43:08;;;;;;;6.23;1.33;;;24.10;89.20;;;;;;5054361;28;20211;-79
2022/09/05 09:46:04;;;;;;;3.17;1.27;;;24.20;24.60;;;;;;5052663;28;20537;-79
2022/09/05 09:48:29;;;;;;;2.60;1.30;;;24.50;1.00;;;;;;5054794;28;20164;-78
2022/09/05 09:51:18;;;;;;;2.00;1.20;;;24.50;1.00;;;;;;5054221;28;20210;-78
2022/09/05 09:54:04;;;;;;;1.30;1.20;;;24.60;1.00;;;;;;5052926;28;20222;-78
2022/09/05 09:57:04;;;;;;;1.93;1.30;;;24.70;1.00;;;;;;5053008;28;20200;-78
2022/09/05 10:00:03;;;;;;;2.37;1.20;;;24.70;1.00;;;;;;5054628;28;20214;-78
2022/09/05 10:03:00;;;;;;;4.10;1.30;;;24.80;1.00;;;;;;5054165;28;20198;-78
2022/09/05 10:05:46;;;;;;;2.73;1.00;;;25.10;1.00;;;;;;5054394;28;20155;-78
2022/09/05 10:08:35;;;;;;;1.77;1.40;;;25.10;1.00;;;;;;5053589;28;20201;-78
2022/09/05 10:11:19;;;;;;;1.70;1.33;;;25.10;1.00;;;;;;5054677;28;20191;-79
2022/09/05 10:14:17;;;;;;;3.10;1.42;;;25.50;1.00;;;;;;5054162;28;20503;-79
2022/09/05 10:17:10;;;;;;;1.55;1.15;;;25.60;1.00;;;;;;5054435;28;20699;-79
2022/09/05 10:20:10;;;;;;;2.38;1.10;;;25.60;1.00;;;;;;5053189;28;20167;-79
2022/09/05 10:22:41;;;;;;;2.45;1.40;;;25.60;1.00;;;;;;5054184;28;20198;-79
2022/09/05 10:25:26;;;;;;;2.30;1.53;;;25.70;1.00;;;;;;5052991;28;20176;-79
2022/09/05 10:28:18;;;;;;;1.20;1.10;;;25.70;1.00;;;;;;5054815;28;20164;-79
2022/09/05 10:31:15;;;;;;;1.40;1.20;;;25.70;1.00;;;;;;5054718;28;20274;-79
2022/09/05 10:33:56;;;;;;;2.58;1.45;;;25.70;1.00;;;;;;5053730;28;20172;-79
2022/09/05 10:36:25;;;;;;;3.50;1.40;;;25.90;1.00;;;;;;5053839;28;20155;-78
2022/09/05 10:39:17;;;;;;;6.28;1.60;;;26.00;99.90;;;;;;5054464;28;20172;-78
2022/09/05 10:41:57;;;;;;;2.95;1.70;;;26.10;99.90;;;;;;5054107;28;20199;-79
2022/09/05 10:44:40;;;;;;;1.90;1.17;;;26.10;1.00;;;;;;5052995;28;20171;-79
2022/09/05 10:47:15;;;;;;;1.63;1.50;;;26.10;1.00;;;;;;5052943;28;20175;-79
2022/09/05 10:49:48;;;;;;;2.58;1.50;;;26.10;1.00;;;;;;5054586;28;20562;-79
2022/09/05 10:52:23;;;;;;;1.75;1.13;;;26.00;1.00;;;;;;5054271;28;20571;-79
2022/09/05 10:55:21;;;;;;;2.72;1.38;;;26.20;1.00;;;;;;5054407;28;20185;-79
2022/09/05 10:57:58;;;;;;;2.28;1.35;;;26.20;99.90;;;;;;5055553;28;20514;-79
2022/09/05 11:00:46;;;;;;;1.88;1.08;;;26.40;99.90;;;;;;5057093;28;20182;-79
2022/09/05 11:03:19;;;;;;;1.63;1.25;;;26.60;99.90;;;;;;5058993;28;20190;-79
2022/09/05 11:05:59;;;;;;;1.83;1.10;;;26.60;99.90;;;;;;5057710;28;20217;-79
2022/09/05 11:08:58;;;;;;;1.83;1.23;;;26.70;99.90;;;;;;5057915;28;20167;-79
2022/09/05 11:11:25;;;;;;;2.65;1.20;;;26.80;99.90;;;;;;5057849;28;20221;-79
2022/09/05 11:13:55;;;;;;;1.83;1.50;;;26.90;99.90;;;;;;5058267;28;20227;-79
2022/09/05 11:16:24;;;;;;;2.40;1.30;;;26.90;99.90;;;;;;5056894;28;20274;-81
2022/09/05 11:18:57;;;;;;;1.85;1.00;;;27.00;99.90;;;;;;5059394;28;20178;-80
2022/09/05 11:21:56;;;;;;;1.60;1.20;;;27.00;99.90;;;;;;5057281;28;20288;-80
2022/09/05 11:24:22;;;;;;;2.08;1.35;;;27.10;99.90;;;;;;5059826;28;20170;-81
2022/09/05 11:27:01;;;;;;;1.30;1.10;;;27.20;99.90;;;;;;5095287;22;20231;-81
2022/09/05 11:29:36;;;;;;;1.77;1.10;;;27.10;99.90;;;;;;5079450;28;20231;-82
2022/09/05 11:32:18;;;;;;;2.13;1.08;;;27.20;99.90;;;;;;5079741;28;20677;-82
2022/09/05 11:34:59;;;;;;;1.95;1.50;;;27.30;99.90;;;;;;5078241;28;20151;-81
2022/09/05 11:37:39;;;;;;;1.92;1.40;;;27.50;99.90;;;;;;5080034;28;20187;-82
2022/09/05 11:40:49;;;;;;;2.40;1.42;;;27.50;99.90;;;;;;5078635;28;20262;-82
2022/09/05 11:43:23;;;;;;;2.05;1.10;;;27.50;99.90;;;;;;5080163;28;20212;-82
2022/09/05 11:46:16;;;;;;;1.45;1.30;;;27.50;99.90;;;;;;5078836;28;20193;-81
2022/09/05 11:49:00;;;;;;;4.30;1.77;;;27.60;99.90;;;;;;5079076;28;20173;-80
2022/09/05 11:51:48;;;;;;;1.38;1.02;;;27.70;99.90;;;;;;5079072;28;20676;-80
2022/09/05 11:54:35;;;;;;;1.63;1.08;;;27.80;99.90;;;;;;5079632;28;20171;-81
2022/09/05 11:57:22;;;;;;;2.45;1.30;;;27.80;99.90;;;;;;5078770;28;20183;-81
2022/09/05 12:00:19;;;;;;;5.38;1.10;;;27.80;99.90;;;;;;5078338;28;20208;-80
2022/09/05 12:03:06;;;;;;;2.05;1.30;;;27.90;99.90;;;;;;5077307;28;20167;-81
2022/09/05 12:06:07;;;;;;;3.05;1.20;;;27.90;99.90;;;;;;5076389;28;20170;-81
2022/09/05 12:09:10;;;;;;;3.47;1.30;;;27.90;99.90;;;;;;5076903;28;20216;-81
2022/09/05 12:12:00;;;;;;;1.45;1.35;;;27.90;99.90;;;;;;5077428;28;20174;-81
2022/09/05 12:14:31;;;;;;;2.00;1.30;;;27.90;99.90;;;;;;5077707;28;20159;-81
2022/09/05 12:17:12;;;;;;;1.73;1.55;;;28.00;99.90;;;;;;5077262;28;20223;-79
2022/09/05 12:19:40;;;;;;;2.55;1.15;;;28.40;99.90;;;;;;5077551;28;20159;-80
2022/09/05 12:22:36;;;;;;;1.02;0.93;;;28.40;99.90;;;;;;5078079;28;20636;-81
2022/09/05 12:25:10;;;;;;;0.95;0.90;;;28.40;99.90;;;;;;5077465;28;20183;-81
2022/09/05 12:27:38;;;;;;;1.88;1.17;;;28.40;99.90;;;;;;5077363;28;20209;-81
2022/09/05 12:30:21;;;;;;;1.88;1.10;;;28.40;99.90;;;;;;5078171;28;20674;-81
2022/09/05 12:32:56;;;;;;;3.22;1.30;;;28.50;99.90;;;;;;5079587;28;20201;-81
2022/09/05 12:35:35;;;;;;;1.50;1.20;;;28.50;99.90;;;;;;5079329;28;20171;-81
2022/09/05 12:38:09;;;;;;;3.63;1.40;;;28.50;99.90;;;;;;5079568;28;20238;-81
2022/09/05 12:40:40;;;;;;;1.30;1.20;;;28.60;99.90;;;;;;5079333;28;20162;-81
2022/09/05 12:43:11;;;;;;;1.92;1.23;;;28.60;99.90;;;;;;5078884;28;20170;-81
2022/09/05 12:45:48;;;;;;;2.20;1.30;;;28.60;99.90;;;;;;5078144;28;20265;-81
2022/09/05 12:48:37;;;;;;;2.78;1.08;;;28.60;99.90;;;;;;5079118;28;20309;-81
2022/09/05 12:51:19;;;;;;;4.38;1.17;;;28.60;99.90;;;;;;5076277;28;20577;-81
2022/09/05 12:53:49;;;;;;;2.08;1.00;;;28.50;99.90;;;;;;5080302;28;20148;-81
2022/09/05 12:56:37;;;;;;;1.60;0.98;;;28.60;99.90;;;;;;5079341;28;20199;-81
2022/09/05 12:59:05;;;;;;;1.45;1.00;;;28.70;99.90;;;;;;5079266;28;20217;-81
2022/09/05 13:01:37;;;;;;;2.03;1.15;;;28.70;99.90;;;;;;5082348;28;20517;-81
2022/09/05 13:04:23;;;;;;;2.85;1.10;;;28.80;99.90;;;;;;5083357;28;20236;-82
2022/09/05 13:07:08;;;;;;;1.80;1.20;;;29.00;99.90;;;;;;5094809;28;20306;-81
2022/09/05 13:09:40;;;;;;;1.70;1.05;;;28.90;99.90;;;;;;5090371;28;20189;-80
2022/09/05 13:12:14;;;;;;;1.15;1.00;;;28.90;99.90;;;;;;5077543;28;20163;-81
2022/09/05 13:15:05;;;;;;;1.10;1.00;;;28.80;99.90;;;;;;5077046;28;20155;-81
2022/09/05 13:18:09;;;;;;;1.30;1.00;;;28.90;99.90;;;;;;5076229;28;20702;-80
2022/09/05 13:20:38;;;;;;;1.58;1.00;;;29.00;99.90;;;;;;5053722;28;20187;-80
2022/09/05 13:23:24;;;;;;;1.30;1.10;;;29.10;99.90;;;;;;5072858;28;20190;-80
2022/09/05 13:25:57;;;;;;;2.28;1.13;;;29.00;99.90;;;;;;5077369;28;20230;-81
2022/09/05 13:28:36;;;;;;;1.25;1.15;;;29.00;99.90;;;;;;5077348;28;20175;-80
2022/09/05 13:31:06;;;;;;;1.60;1.10;;;29.10;99.90;;;;;;5076241;28;20175;-80
2022/09/05 13:33:50;;;;;;;1.20;1.10;;;29.20;99.90;;;;;;5074477;28;20175;-80
2022/09/05 13:36:25;;;;;;;1.77;1.30;;;29.20;99.90;;;;;;5074489;28;20191;-80
2022/09/05 13:39:04;;;;;;;3.90;1.20;;;29.30;99.90;;;;;;5076464;28;20162;-80
2022/09/05 13:41:34;;;;;;;1.75;1.13;;;29.20;99.90;;;;;;5075445;28;20248;-80
2022/09/05 13:44:06;;;;;;;2.97;1.08;;;29.30;99.90;;;;;;5075076;28;20262;-80
2022/09/05 13:46:40;;;;;;;1.67;1.20;;;29.30;99.90;;;;;;5074489;28;20218;-80
2022/09/05 13:49:21;;;;;;;4.97;1.20;;;29.30;99.90;;;;;;5075350;28;20486;-79
2022/09/05 13:52:02;;;;;;;4.15;1.25;;;29.40;99.90;;;;;;5075926;28;20208;-80
2022/09/05 13:54:59;;;;;;;1.25;1.00;;;29.50;99.90;;;;;;5076202;28;20148;-80
2022/09/05 13:57:33;;;;;;;1.63;1.00;;;29.40;99.90;;;;;;5074732;28;20218;-80
2022/09/05 14:00:17;;;;;;;1.27;1.10;;;29.60;99.90;;;;;;5074995;28;20171;-80
2022/09/05 14:02:48;;;;;;;2.28;1.20;;;29.60;99.90;;;;;;5077333;28;20158;-80
2022/09/05 14:05:37;;;;;;;1.63;1.30;;;29.60;99.90;;;;;;5076268;28;20644;-81
2022/09/05 14:08:32;;;;;;;1.48;1.02;;;29.50;99.90;;;;;;5077925;28;20191;-81
2022/09/05 14:11:31;;;;;;;4.70;0.90;;;29.50;99.90;;;;;;5079693;28;20183;-80
2022/09/05 14:14:22;;;;;;;1.85;0.98;;;29.50;99.90;;;;;;5078579;28;20147;-81